createdAt,value
2024-04-03T00:00:41.339Z,984
2024-04-03T00:03:07.435Z,983.9
2024-04-03T00:05:33.540Z,983.9
2024-04-03T00:07:59.632Z,983.8
2024-04-03T00:10:25.723Z,983.9
2024-04-03T00:12:51.822Z,983.8
2024-04-03T00:15:17.925Z,983.8
2024-04-03T00:17:43.997Z,983.8
2024-04-03T00:20:09.126Z,983.7
2024-04-03T00:22:35.224Z,983.7
2024-04-03T00:25:01.307Z,983.6
2024-04-03T00:27:27.414Z,983.6
2024-04-03T00:29:53.502Z,983.6
2024-04-03T00:32:19.587Z,983.7
2024-04-03T00:34:45.690Z,983.6
2024-04-03T00:37:11.789Z,983.6
2024-04-03T00:39:37.969Z,983.7
2024-04-03T00:42:03.965Z,983.7
2024-04-03T00:44:30.091Z,983.6
2024-04-03T00:46:56.167Z,983.5
2024-04-03T00:49:22.267Z,983.5
2024-04-03T00:51:48.357Z,983.5
2024-04-03T00:54:14.452Z,983.5
2024-04-03T00:56:40.545Z,983.4
2024-04-03T00:59:06.630Z,983.5
2024-04-03T01:01:32.746Z,983.4
2024-04-03T01:03:57.855Z,983.3
2024-04-03T01:06:23.931Z,983.3
2024-04-03T01:08:50.039Z,983.3
2024-04-03T01:11:16.132Z,983.3
2024-04-03T01:13:42.223Z,983.2
2024-04-03T01:16:08.323Z,983.2
2024-04-03T01:18:34.412Z,983.2
2024-04-03T01:21:00.504Z,983.2
2024-04-03T01:23:26.593Z,983.1
2024-04-03T01:25:52.695Z,983.1
2024-04-03T01:28:18.797Z,983
2024-04-03T01:30:44.882Z,983.1
2024-04-03T01:33:11.000Z,983.1
2024-04-03T01:35:36.086Z,983
2024-04-03T01:38:02.182Z,983
2024-04-03T01:40:28.282Z,982.9
2024-04-03T01:42:54.392Z,982.9
2024-04-03T01:45:20.477Z,982.8
2024-04-03T01:47:46.586Z,982.8
2024-04-03T01:50:12.674Z,982.8
2024-04-03T01:52:38.766Z,982.8
2024-04-03T01:55:04.866Z,982.9
2024-04-03T01:57:30.965Z,982.9
2024-04-03T01:59:57.056Z,982.8
2024-04-03T02:02:23.140Z,982.8
2024-04-03T02:04:49.235Z,982.8
2024-04-03T02:07:15.331Z,982.8
2024-04-03T02:09:41.445Z,982.8
2024-04-03T02:12:07.539Z,982.8
2024-04-03T02:14:33.627Z,982.8
2024-04-03T02:16:59.717Z,982.8
2024-04-03T02:19:25.812Z,982.8
2024-04-03T02:21:51.900Z,982.7
2024-04-03T02:24:17.997Z,982.7
2024-04-03T02:26:44.098Z,982.6
2024-04-03T02:29:10.190Z,982.7
2024-04-03T02:31:36.297Z,982.7
2024-04-03T02:34:02.394Z,982.7
2024-04-03T02:36:28.484Z,982.6
2024-04-03T02:38:54.554Z,982.6
2024-04-03T02:41:20.672Z,982.6
2024-04-03T02:43:46.767Z,982.5
2024-04-03T02:46:12.869Z,982.6
2024-04-03T02:48:39.058Z,982.5
2024-04-03T02:51:05.061Z,982.5
2024-04-03T02:53:31.154Z,982.5
2024-04-03T02:55:57.237Z,982.4
2024-04-03T02:58:23.328Z,982.3
2024-04-03T03:00:49.436Z,982.3
2024-04-03T03:03:15.521Z,982.2
2024-04-03T03:05:41.696Z,982.3
2024-04-03T03:08:07.930Z,982.3
2024-04-03T03:10:33.040Z,982.2
2024-04-03T03:12:59.132Z,982.3
2024-04-03T03:15:25.237Z,982.2
2024-04-03T03:17:51.321Z,982.2
2024-04-03T03:20:17.414Z,982.1
2024-04-03T03:22:43.517Z,982.1
2024-04-03T03:25:09.603Z,982.1
2024-04-03T03:27:35.716Z,982.1
2024-04-03T03:30:01.795Z,982
2024-04-03T03:32:27.894Z,982
2024-04-03T03:34:54.004Z,981.9
2024-04-03T03:37:19.117Z,981.9
2024-04-03T03:39:44.219Z,981.8
2024-04-03T03:42:10.326Z,981.8
2024-04-03T03:44:36.407Z,981.7
2024-04-03T03:47:02.500Z,981.7
2024-04-03T03:49:28.605Z,981.7
2024-04-03T03:51:54.724Z,981.6
2024-04-03T03:54:20.810Z,981.6
2024-04-03T03:56:46.898Z,981.5
2024-04-03T03:59:12.979Z,981.5
2024-04-03T04:01:39.071Z,981.5
2024-04-03T04:04:05.188Z,981.6
2024-04-03T04:06:31.259Z,981.5
2024-04-03T04:08:57.348Z,981.5
2024-04-03T04:11:23.465Z,981.5
2024-04-03T04:13:49.545Z,981.5
2024-04-03T04:16:15.657Z,981.5
2024-04-03T04:18:41.749Z,981.4
2024-04-03T04:21:07.840Z,981.4
2024-04-03T04:23:32.973Z,981.4
2024-04-03T04:25:58.061Z,981.5
2024-04-03T04:28:23.194Z,981.5
2024-04-03T04:30:49.275Z,981.5
2024-04-03T04:33:15.366Z,981.5
2024-04-03T04:35:41.484Z,981.5
2024-04-03T04:38:07.557Z,981.5
2024-04-03T04:40:33.646Z,981.5
2024-04-03T04:42:59.763Z,981.5
2024-04-03T04:45:25.859Z,981.4
2024-04-03T04:47:51.946Z,981.4
2024-04-03T04:50:18.032Z,981.4
2024-04-03T04:52:44.148Z,981.4
2024-04-03T04:55:10.225Z,981.4
2024-04-03T04:57:36.316Z,981.4
2024-04-03T05:00:01.448Z,981.4
2024-04-03T05:02:27.538Z,981.4
2024-04-03T05:04:53.620Z,981.4
2024-04-03T05:07:19.733Z,981.3
2024-04-03T05:09:45.818Z,981.3
2024-04-03T05:12:11.909Z,981.3
2024-04-03T05:14:37.028Z,981.4
2024-04-03T05:17:02.162Z,981.5
2024-04-03T05:19:28.227Z,981.4
2024-04-03T05:21:54.323Z,981.4
2024-04-03T05:24:20.435Z,981.3
2024-04-03T05:26:46.548Z,981.3
2024-04-03T05:29:12.623Z,981.4
2024-04-03T05:31:38.711Z,981.4
2024-04-03T05:34:04.829Z,981.4
2024-04-03T05:36:30.917Z,981.5
2024-04-03T05:38:57.005Z,981.5
2024-04-03T05:41:23.104Z,981.5
2024-04-03T05:43:49.198Z,981.5
2024-04-03T05:46:15.322Z,981.6
2024-04-03T05:48:40.417Z,981.6
2024-04-03T05:51:06.514Z,981.5
2024-04-03T05:53:32.589Z,981.6
2024-04-03T05:55:58.673Z,981.6
2024-04-03T05:58:24.778Z,981.5
2024-04-03T06:00:50.867Z,981.6
2024-04-03T06:05:42.103Z,981.6
2024-04-03T06:08:07.214Z,981.6
2024-04-03T06:10:32.326Z,981.7
2024-04-03T06:12:58.423Z,981.7
2024-04-03T06:15:24.513Z,981.8
2024-04-03T06:17:50.664Z,981.7
2024-04-03T06:20:16.715Z,981.8
2024-04-03T06:22:42.798Z,982
2024-04-03T06:25:08.893Z,981.9
2024-04-03T06:27:34.986Z,982
2024-04-03T06:30:01.094Z,982.1
2024-04-03T06:32:27.201Z,982.1
2024-04-03T06:34:53.283Z,982.1
2024-04-03T06:37:19.379Z,982.1
2024-04-03T06:39:45.458Z,982
2024-04-03T06:42:10.587Z,981.9
2024-04-03T06:44:36.684Z,982
2024-04-03T06:47:02.769Z,982
2024-04-03T06:49:28.888Z,981.9
2024-04-03T06:51:54.983Z,982
2024-04-03T06:54:20.092Z,982
2024-04-03T06:56:45.212Z,982
2024-04-03T06:59:10.315Z,981.9
2024-04-03T07:01:36.418Z,981.8
2024-04-03T07:04:02.575Z,981.8
2024-04-03T07:06:28.600Z,981.8
2024-04-03T07:08:54.699Z,982
2024-04-03T07:11:20.795Z,982.2
2024-04-03T07:13:46.974Z,982.2
2024-04-03T07:16:12.978Z,982.2
2024-04-03T07:18:39.064Z,982.2
2024-04-03T07:21:05.180Z,982.3
2024-04-03T07:23:31.248Z,982.4
2024-04-03T07:25:57.362Z,982.5
2024-04-03T07:28:23.448Z,982.7
2024-04-03T07:30:48.582Z,982.7
2024-04-03T07:33:14.658Z,982.7
2024-04-03T07:35:40.736Z,982.6
2024-04-03T07:38:06.851Z,982.6
2024-04-03T07:40:32.945Z,982.6
2024-04-03T07:42:59.057Z,982.6
2024-04-03T07:45:25.129Z,982.6
2024-04-03T07:47:51.244Z,982.7
2024-04-03T07:50:17.316Z,982.7
2024-04-03T07:52:43.427Z,982.7
2024-04-03T07:55:09.522Z,982.6
2024-04-03T07:57:35.617Z,982.7
2024-04-03T08:00:01.697Z,982.6
2024-04-03T08:02:26.817Z,982.5
2024-04-03T08:04:52.905Z,982.6
2024-04-03T08:07:18.999Z,982.6
2024-04-03T08:09:45.091Z,982.6
2024-04-03T08:12:11.187Z,982.5
2024-04-03T08:14:37.291Z,982.5
2024-04-03T08:17:03.383Z,982.5
2024-04-03T08:19:29.486Z,982.5
2024-04-03T08:21:55.556Z,982.5
2024-04-03T08:24:21.799Z,982.4
2024-04-03T08:26:47.749Z,982.4
2024-04-03T08:29:13.851Z,982.4
2024-04-03T08:31:40.430Z,982.4
2024-04-03T08:34:05.169Z,982.3
2024-04-03T08:36:31.443Z,982.3
2024-04-03T08:38:57.513Z,982.4
2024-04-03T08:41:23.334Z,982.4
2024-04-03T08:43:49.777Z,982.3
2024-04-03T08:46:15.884Z,982.3
2024-04-03T08:48:41.981Z,982.3
2024-04-03T08:51:08.044Z,982.2
2024-04-03T08:53:34.112Z,982.2
2024-04-03T08:56:00.251Z,982.1
2024-04-03T08:58:26.291Z,982.1
2024-04-03T09:00:52.464Z,982
2024-04-03T09:03:18.189Z,982
2024-04-03T09:05:43.626Z,982
2024-04-03T09:08:09.759Z,982
2024-04-03T09:10:35.730Z,981.9
2024-04-03T09:13:01.797Z,981.9
2024-04-03T09:15:28.017Z,981.9
2024-04-03T09:17:54.036Z,982
2024-04-03T09:20:20.186Z,982
2024-04-03T09:22:46.011Z,981.9
2024-04-03T09:25:12.353Z,981.9
2024-04-03T09:27:38.505Z,981.9
2024-04-03T09:30:04.660Z,981.8
2024-04-03T09:32:30.692Z,981.8
2024-04-03T09:34:56.455Z,981.8
2024-04-03T09:37:22.927Z,981.8
2024-04-03T09:39:48.020Z,981.7
2024-04-03T09:42:14.156Z,981.7
2024-04-03T09:44:40.134Z,981.6
2024-04-03T09:47:06.197Z,981.7
2024-04-03T09:49:32.015Z,981.6
2024-04-03T09:51:58.430Z,981.6
2024-04-03T09:54:24.537Z,981.5
2024-04-03T09:56:50.648Z,981.5
2024-04-03T10:01:42.962Z,981.4
2024-04-03T10:04:08.842Z,981.3
2024-04-03T10:06:35.017Z,981.3
2024-04-03T10:09:01.208Z,981.2
2024-04-03T10:11:26.142Z,981.2
2024-04-03T10:13:52.336Z,981.3
2024-04-03T10:16:18.503Z,981.2
2024-04-03T10:18:44.155Z,981.2
2024-04-03T10:21:10.627Z,981.2
2024-04-03T10:23:36.365Z,981.1
2024-04-03T10:26:02.799Z,981.2
2024-04-03T10:28:28.872Z,981.3
2024-04-03T10:30:54.973Z,981.2
2024-04-03T10:33:21.127Z,981.2
2024-04-03T10:35:47.165Z,981.2
2024-04-03T10:38:13.285Z,981.2
2024-04-03T10:40:39.411Z,981.1
2024-04-03T10:43:05.446Z,981.1
2024-04-03T10:45:31.519Z,981.1
2024-04-03T10:47:57.664Z,981.2
2024-04-03T10:50:23.619Z,981.1
2024-04-03T10:52:48.839Z,981.1
2024-04-03T10:55:14.738Z,981
2024-04-03T10:57:40.933Z,981.3
2024-04-03T11:00:07.256Z,981.4
2024-04-03T11:02:32.933Z,981.4
2024-04-03T11:04:59.345Z,981.5
2024-04-03T11:07:25.377Z,981.5
2024-04-03T11:09:51.475Z,981.4
2024-04-03T11:12:17.258Z,981.5
2024-04-03T11:14:43.748Z,981.5
2024-04-03T11:17:09.783Z,981.5
2024-04-03T11:19:35.779Z,981.6
2024-04-03T11:22:01.628Z,981.6
2024-04-03T11:24:27.065Z,981.6
2024-04-03T11:26:53.164Z,981.7
2024-04-03T11:29:18.944Z,981.7
2024-04-03T11:31:45.409Z,981.7
2024-04-03T11:34:11.451Z,981.7
2024-04-03T11:36:37.493Z,981.7
2024-04-03T11:41:29.623Z,981.6
2024-04-03T11:43:55.825Z,981.6
2024-04-03T11:46:21.734Z,981.7
2024-04-03T11:48:48.023Z,981.7
2024-04-03T11:51:14.170Z,981.7
2024-04-03T11:53:40.280Z,981.6
2024-04-03T11:56:06.439Z,981.7
2024-04-03T11:58:32.568Z,981.6
2024-04-03T12:00:58.591Z,981.7
2024-04-03T12:03:24.748Z,981.6
2024-04-03T12:05:50.832Z,981.6
2024-04-03T12:08:16.895Z,981.6
2024-04-03T12:10:42.847Z,981.7
2024-04-03T12:13:09.129Z,981.7
2024-04-03T12:15:35.078Z,981.6
2024-04-03T12:18:01.350Z,981.6
2024-04-03T12:20:27.048Z,981.7
2024-04-03T12:22:53.186Z,981.6
2024-04-03T12:27:45.633Z,981.7
2024-04-03T12:30:10.755Z,981.7
2024-04-03T12:32:36.852Z,981.7
2024-04-03T12:35:02.982Z,981.7
2024-04-03T12:37:28.833Z,981.7
2024-04-03T12:39:54.815Z,981.7
2024-04-03T12:42:21.260Z,981.8
2024-04-03T12:44:47.364Z,981.6
2024-04-03T12:47:13.103Z,981.7
2024-04-03T12:49:39.538Z,981.7
2024-04-03T12:52:05.615Z,981.7
2024-04-03T12:54:31.714Z,981.7
2024-04-03T12:56:57.613Z,981.7
2024-04-03T12:59:23.890Z,981.7
2024-04-03T13:01:50.001Z,981.7
2024-04-03T13:04:16.040Z,981.7
2024-04-03T13:06:42.198Z,981.7
2024-04-03T13:09:08.344Z,981.7
2024-04-03T13:11:34.052Z,981.7
2024-04-03T13:14:00.523Z,981.7
2024-04-03T13:16:26.239Z,981.7
2024-04-03T13:18:52.595Z,981.7
2024-04-03T13:21:18.482Z,981.7
2024-04-03T13:23:44.924Z,981.7
2024-04-03T13:26:10.934Z,981.7
2024-04-03T13:28:37.057Z,981.7
2024-04-03T13:31:02.785Z,981.7
2024-04-03T13:33:29.081Z,981.8
2024-04-03T13:35:54.003Z,981.8
2024-04-03T13:38:20.387Z,981.8
2024-04-03T13:40:46.557Z,981.7
2024-04-03T13:43:12.455Z,981.8
2024-04-03T13:45:38.671Z,981.8
2024-04-03T13:48:04.860Z,981.9
2024-04-03T13:50:30.579Z,981.9
2024-04-03T13:52:56.933Z,981.9
2024-04-03T13:55:23.114Z,981.9
2024-04-03T13:57:49.247Z,981.9
2024-04-03T14:00:14.954Z,981.9
2024-04-03T14:02:41.049Z,981.9
2024-04-03T14:05:07.456Z,981.9
2024-04-03T14:07:32.596Z,981.9
2024-04-03T14:09:58.723Z,981.9
2024-04-03T14:12:24.829Z,982
2024-04-03T14:14:50.937Z,981.9
2024-04-03T14:19:43.072Z,981.9
2024-04-03T14:22:09.232Z,982
2024-04-03T14:24:35.004Z,982
2024-04-03T14:27:01.353Z,982
2024-04-03T14:29:27.098Z,982.1
2024-04-03T14:31:53.445Z,982.1
2024-04-03T14:34:19.711Z,982.1
2024-04-03T14:36:45.712Z,982.1
2024-04-03T14:39:10.890Z,982.1
2024-04-03T14:41:37.025Z,982.1
2024-04-03T14:44:02.679Z,982.1
2024-04-03T14:46:29.115Z,982.2
2024-04-03T14:48:55.045Z,982.2
2024-04-03T14:51:21.314Z,982.2
2024-04-03T14:53:47.364Z,982.2
2024-04-03T14:56:13.531Z,982.2
2024-04-03T14:58:39.592Z,982.2
2024-04-03T15:01:05.361Z,982.3
2024-04-03T15:03:30.886Z,982.3
2024-04-03T15:05:56.715Z,982.2
2024-04-03T15:08:23.049Z,982.3
2024-04-03T15:10:48.989Z,982.3
2024-04-03T15:13:15.071Z,982.4
2024-04-03T15:15:41.081Z,982.4
2024-04-03T15:18:07.465Z,982.3
2024-04-03T15:20:33.309Z,982.3
2024-04-03T15:22:59.559Z,982.4
2024-04-03T15:25:25.624Z,982.4
2024-04-03T15:27:51.797Z,982.4
2024-04-03T15:30:17.883Z,982.4
2024-04-03T15:32:43.820Z,982.4
2024-04-03T15:35:09.088Z,982.4
2024-04-03T15:37:35.263Z,982.4
2024-04-03T15:40:01.293Z,982.4
2024-04-03T15:42:27.404Z,982.3
2024-04-03T15:44:53.448Z,982.3
2024-04-03T15:47:19.531Z,982.3
2024-04-03T15:49:45.638Z,982.3
2024-04-03T15:52:11.692Z,982.4
2024-04-03T15:54:37.824Z,982.4
2024-04-03T15:57:03.895Z,982.3
2024-04-03T15:59:29.649Z,982.3
2024-04-03T16:01:56.089Z,982.4
2024-04-03T16:04:21.834Z,982.3
2024-04-03T16:06:48.320Z,982.4
2024-04-03T16:09:13.070Z,982.4
2024-04-03T16:11:39.487Z,982.4
2024-04-03T16:14:05.621Z,982.3
2024-04-03T16:16:31.739Z,982.4
2024-04-03T16:18:57.748Z,982.3
2024-04-03T16:21:23.899Z,982.4
2024-04-03T16:23:49.989Z,982.4
2024-04-03T16:26:16.056Z,982.4
2024-04-03T16:28:42.128Z,982.5
2024-04-03T16:31:07.889Z,982.5
2024-04-03T16:33:34.462Z,982.5
2024-04-03T16:36:00.335Z,982.6
2024-04-03T16:38:26.485Z,982.5
2024-04-03T16:40:51.581Z,982.6
2024-04-03T16:43:17.372Z,982.6
2024-04-03T16:45:43.879Z,982.7
2024-04-03T16:48:09.966Z,982.6
2024-04-03T16:50:35.686Z,982.8
2024-04-03T16:53:02.068Z,982.8
2024-04-03T16:55:27.855Z,982.7
2024-04-03T16:57:54.306Z,982.8
2024-04-03T17:00:20.399Z,982.8
2024-04-03T17:02:46.485Z,982.8
2024-04-03T17:05:12.432Z,982.9
2024-04-03T17:07:38.654Z,983
2024-04-03T17:10:04.836Z,982.9
2024-04-03T17:12:29.853Z,983
2024-04-03T17:14:56.002Z,982.9
2024-04-03T17:17:22.087Z,982.9
2024-04-03T17:19:47.936Z,982.9
2024-04-03T17:22:13.922Z,983
2024-04-03T17:24:40.327Z,982.9
2024-04-03T17:27:06.464Z,983
2024-04-03T17:29:32.404Z,982.9
2024-04-03T17:31:58.587Z,983
2024-04-03T17:34:24.721Z,983
2024-04-03T17:36:50.707Z,983.1
2024-04-03T17:39:17.074Z,983.1
2024-04-03T17:41:43.058Z,983.1
2024-04-03T17:44:08.120Z,983.1
2024-04-03T17:46:34.162Z,983.1
2024-04-03T17:49:00.331Z,983.2
2024-04-03T17:51:26.459Z,983.2
2024-04-03T17:53:52.411Z,983.3
2024-04-03T17:56:18.777Z,983.2
2024-04-03T17:58:44.728Z,983.3
2024-04-03T18:01:10.431Z,983.2
2024-04-03T18:03:36.556Z,983.2
2024-04-03T18:06:03.020Z,983.1
2024-04-03T18:08:29.062Z,983.2
2024-04-03T18:10:54.966Z,983.3
2024-04-03T18:13:21.220Z,983.2
2024-04-03T18:15:46.382Z,983.2
2024-04-03T18:18:12.423Z,983.3
2024-04-03T18:20:38.463Z,983.3
2024-04-03T18:23:04.631Z,983.4
2024-04-03T18:25:30.731Z,983.5
2024-04-03T18:27:56.497Z,983.5
2024-04-03T18:30:22.604Z,983.5
2024-04-03T18:32:48.908Z,983.6
2024-04-03T18:35:15.124Z,983.6
2024-04-03T18:37:40.883Z,983.6
2024-04-03T18:40:07.298Z,983.7
2024-04-03T18:42:33.087Z,983.7
2024-04-03T18:44:59.256Z,983.8
2024-04-03T18:47:24.537Z,983.8
2024-04-03T18:49:50.660Z,983.8
2024-04-03T18:52:16.913Z,983.9
2024-04-03T18:54:42.903Z,983.9
2024-04-03T18:57:08.987Z,983.8
2024-04-03T18:59:35.029Z,983.8
2024-04-03T19:02:01.173Z,983.8
2024-04-03T19:04:27.201Z,983.9
2024-04-03T19:06:53.508Z,983.9
2024-04-03T19:09:19.499Z,983.9
2024-04-03T19:11:45.561Z,983.9
2024-04-03T19:14:11.749Z,984
2024-04-03T19:16:37.799Z,983.9
2024-04-03T19:19:02.731Z,983.9
2024-04-03T19:21:28.906Z,984
2024-04-03T19:23:55.083Z,984.1
2024-04-03T19:26:21.037Z,984
2024-04-03T19:28:47.244Z,984.1
2024-04-03T19:31:13.213Z,984.1
2024-04-03T19:33:39.342Z,984.1
2024-04-03T19:36:05.190Z,984.2
2024-04-03T19:38:31.561Z,984.1
2024-04-03T19:40:57.358Z,984.1
2024-04-03T19:43:23.784Z,984.2
2024-04-03T19:45:49.595Z,984.2
2024-04-03T19:48:16.023Z,984.2
2024-04-03T19:50:41.134Z,984.1
2024-04-03T19:53:06.992Z,984.2
2024-04-03T19:55:33.304Z,984.2
2024-04-03T19:57:59.387Z,984.2
2024-04-03T20:00:25.282Z,984.1
2024-04-03T20:02:51.373Z,984.1
2024-04-03T20:05:17.637Z,984.1
2024-04-03T20:07:43.773Z,984.1
2024-04-03T20:10:09.749Z,984.2
2024-04-03T20:12:35.988Z,984.2
2024-04-03T20:15:02.099Z,984.1
2024-04-03T20:17:28.050Z,984.1
2024-04-03T20:19:54.134Z,984.1
2024-04-03T20:22:19.373Z,984.1
2024-04-03T20:24:45.465Z,984.1
2024-04-03T20:27:11.523Z,984.1
2024-04-03T20:29:37.551Z,984.1
2024-04-03T20:32:03.756Z,984.1
2024-04-03T20:34:29.518Z,984.2
2024-04-03T20:36:55.648Z,984.1
2024-04-03T20:39:22.063Z,984.1
2024-04-03T20:41:48.120Z,984.2
2024-04-03T20:44:14.264Z,984.1
2024-04-03T20:46:40.109Z,984.2
2024-04-03T20:49:06.377Z,984.1
2024-04-03T20:51:32.132Z,984.2
2024-04-03T20:53:57.506Z,984.2
2024-04-03T20:56:23.747Z,984.2
2024-04-03T20:58:49.798Z,984.2
2024-04-03T21:01:15.704Z,984.3
2024-04-03T21:03:41.979Z,984.3
2024-04-03T21:06:07.741Z,984.3
2024-04-03T21:08:34.186Z,984.3
2024-04-03T21:11:00.375Z,984.3
2024-04-03T21:13:26.397Z,984.3
2024-04-03T21:15:52.516Z,984.4
2024-04-03T21:18:18.462Z,984.3
2024-04-03T21:20:44.527Z,984.3
2024-04-03T21:23:10.716Z,984.3
2024-04-03T21:25:35.790Z,984.4
2024-04-03T21:28:01.968Z,984.4
2024-04-03T21:30:28.068Z,984.4
2024-04-03T21:32:54.161Z,984.3
2024-04-03T21:35:20.205Z,984.4
2024-04-03T21:37:46.327Z,984.4
2024-04-03T21:40:12.454Z,984.4
2024-04-03T21:42:38.184Z,984.4
2024-04-03T21:45:04.598Z,984.5
2024-04-03T21:47:30.690Z,984.4
2024-04-03T21:49:56.795Z,984.5
2024-04-03T21:52:22.894Z,984.5
2024-04-03T21:54:48.994Z,984.5
2024-04-03T21:57:14.131Z,984.5
2024-04-03T21:59:39.848Z,984.4
2024-04-03T22:02:06.302Z,984.5
2024-04-03T22:04:32.333Z,984.5
2024-04-03T22:06:58.500Z,984.5
2024-04-03T22:09:24.222Z,984.6
2024-04-03T22:11:50.691Z,984.6
2024-04-03T22:14:16.852Z,984.6
2024-04-03T22:16:42.496Z,984.7
2024-04-03T22:19:09.015Z,984.7
2024-04-03T22:21:34.980Z,984.7
2024-04-03T22:24:01.173Z,984.7
2024-04-03T22:26:26.989Z,984.7
2024-04-03T22:28:52.322Z,984.7
2024-04-03T22:31:18.415Z,984.7
2024-04-03T22:33:44.490Z,984.7
2024-04-03T22:36:10.519Z,984.6
2024-04-03T22:38:36.694Z,984.6
2024-04-03T22:41:02.849Z,984.7
2024-04-03T22:43:28.887Z,984.6
2024-04-03T22:45:55.024Z,984.6
2024-04-03T22:48:20.783Z,984.6
2024-04-03T22:50:47.112Z,984.5
2024-04-03T22:53:13.282Z,984.6
2024-04-03T22:55:39.034Z,984.6
2024-04-03T22:58:05.421Z,984.7
2024-04-03T23:00:31.407Z,984.7
2024-04-03T23:02:57.746Z,984.7
2024-04-03T23:05:23.738Z,984.8
2024-04-03T23:07:48.863Z,984.9
2024-04-03T23:10:14.801Z,984.9
2024-04-03T23:15:06.003Z,984.9
2024-04-03T23:17:31.171Z,985
2024-04-03T23:19:57.397Z,985
2024-04-03T23:22:23.471Z,984.9
2024-04-03T23:24:49.250Z,985
2024-04-03T23:27:15.493Z,984.9
2024-04-03T23:29:41.757Z,984.9
2024-04-03T23:32:07.709Z,984.9
2024-04-03T23:34:33.960Z,984.8
2024-04-03T23:37:00.062Z,984.9
2024-04-03T23:39:26.151Z,984.8
2024-04-03T23:41:52.268Z,984.9
2024-04-03T23:44:18.317Z,984.9
2024-04-03T23:46:44.411Z,984.9
2024-04-03T23:49:10.433Z,984.9
2024-04-03T23:51:36.628Z,984.9
2024-04-03T23:54:02.368Z,984.8
2024-04-03T23:56:28.459Z,984.8
2024-04-03T23:58:54.901Z,984.9
